Time;durP1;ratioP1;P1;durP2;ratioP2;P2;SDS_P1;SDS_P2;PMS_P1;PMS_P2;Temp;Humidity;BMP_temperature;BMP_pressure;BME280_temperature;BME280_humidity;BME280_pressure;Samples;Min_cycle;Max_cycle;Signal;HPM_P1;HPM_P2
2023/01/06 00:00:38;;;;;;;0.10;0.10;;;;;;;12.59;72.00;101812.88;5049922;28;20088;-82
2023/01/06 00:03:07;;;;;;;0.40;0.40;;;;;;;12.60;71.78;101795.16;5056897;28;20025;-81
2023/01/06 00:05:33;;;;;;;0.10;0.10;;;;;;;12.64;71.94;101796.88;5054352;28;20040;-81
2023/01/06 00:07:59;;;;;;;0.10;0.10;;;;;;;12.62;72.52;101791.56;5047528;28;20033;-81
2023/01/06 00:10:25;;;;;;;0.10;0.10;;;;;;;12.61;71.97;101794.22;5054915;28;20513;-82
2023/01/06 00:12:52;;;;;;;0.10;0.10;;;;;;;12.62;72.03;101785.34;5055515;28;20025;-81
2023/01/06 00:15:19;;;;;;;0.45;0.45;;;;;;;12.58;72.70;101784.53;5051792;28;20035;-82
2023/01/06 00:17:45;;;;;;;0.20;0.20;;;;;;;12.59;72.68;101785.41;5050326;28;20445;-80
2023/01/06 00:20:12;;;;;;;0.17;0.17;;;;;;;12.62;71.97;101775.63;5052869;28;20029;-81
2023/01/06 00:22:40;;;;;;;0.10;0.10;;;;;;;12.70;72.33;101766.66;5051728;28;20025;-82
2023/01/06 00:25:09;;;;;;;0.10;0.10;;;;;;;12.60;72.02;101774.75;5054239;28;20025;-81
2023/01/06 00:27:35;;;;;;;2.75;0.95;;;;;;;12.64;72.38;101766.75;5053263;28;20036;-81
2023/01/06 00:30:02;;;;;;;0.10;0.10;;;;;;;12.69;71.83;101770.22;5053641;28;20029;-82
2023/01/06 00:32:28;;;;;;;0.10;0.10;;;;;;;12.62;71.88;101783.59;5052563;28;20509;-80
2023/01/06 00:34:54;;;;;;;0.03;0.03;;;;;;;12.60;71.82;101761.47;5049222;28;20021;-80
2023/01/06 00:37:20;;;;;;;0.13;0.13;;;;;;;12.62;71.69;101775.63;5048507;28;20490;-81
2023/01/06 00:39:46;;;;;;;0.10;0.10;;;;;;;12.58;71.98;101771.22;5053732;28;20025;-80
2023/01/06 00:42:12;;;;;;;0.13;0.13;;;;;;;12.65;71.61;101773.81;5055564;28;20601;-81
2023/01/06 00:44:39;;;;;;;0.10;0.10;;;;;;;12.62;71.66;101759.66;5058755;28;20044;-81
2023/01/06 00:47:08;;;;;;;0.10;0.10;;;;;;;12.67;71.14;101756.06;5070836;28;20032;-80
2023/01/06 00:49:34;;;;;;;0.10;0.10;;;;;;;12.65;71.32;101764.06;5051673;28;20022;-81
2023/01/06 00:52:01;;;;;;;0.10;0.10;;;;;;;12.65;71.83;101753.44;5051899;28;20099;-79
2023/01/06 00:54:27;;;;;;;0.10;0.10;;;;;;;12.64;71.60;101767.63;5050639;28;20513;-80
2023/01/06 00:56:54;;;;;;;0.32;0.32;;;;;;;12.69;71.57;101756.94;5054646;28;20029;-79
2023/01/06 00:59:22;;;;;;;0.10;0.10;;;;;;;12.56;72.05;101770.38;5052717;28;20462;-81
2023/01/06 01:01:51;;;;;;;0.10;0.10;;;;;;;12.59;71.78;101754.38;5054495;28;20033;-81
2023/01/06 01:04:17;;;;;;;0.10;0.10;;;;;;;12.62;71.32;101757.00;5051003;28;20032;-81
2023/01/06 01:06:45;;;;;;;0.10;0.10;;;;;;;12.65;70.86;101755.19;5050649;28;20029;-80
2023/01/06 01:09:17;;;;;;;0.10;0.10;;;;;;;12.65;70.69;101741.91;5056371;28;20033;-80
2023/01/06 01:12:15;;;;;;;0.20;0.20;;;;;;;12.65;71.07;101756.09;5064078;28;20029;-79
2023/01/06 01:14:30;;;;;;;0.10;0.10;;;;;;;12.70;71.01;101743.59;5059210;28;20590;-81
2023/01/06 01:16:56;;;;;;;0.10;0.10;;;;;;;12.65;70.81;101752.53;5056144;28;20577;-81
2023/01/06 01:19:24;;;;;;;0.10;0.10;;;;;;;12.71;70.64;101733.84;5055623;28;20025;-81
2023/01/06 01:21:50;;;;;;;0.10;0.10;;;;;;;12.72;70.61;101743.56;5052092;28;20033;-80
2023/01/06 01:24:17;;;;;;;0.32;0.32;;;;;;;12.74;70.43;101752.41;5054072;28;20018;-81
2023/01/06 01:26:44;;;;;;;0.20;0.20;;;;;;;12.69;70.22;101751.63;5058896;28;20400;-81
2023/01/06 01:29:12;;;;;;;0.10;0.10;;;;;;;12.68;70.25;101765.81;5057932;28;20413;-80
2023/01/06 01:31:39;;;;;;;0.10;0.10;;;;;;;12.70;70.19;101735.63;5055393;28;20024;-81
2023/01/06 01:34:06;;;;;;;0.35;0.32;;;;;;;12.76;70.02;101729.31;5057997;28;20037;-79
2023/01/06 01:36:32;;;;;;;0.28;0.28;;;;;;;12.61;70.48;101720.69;5060870;28;20495;-81
2023/01/06 01:38:59;;;;;;;0.10;0.10;;;;;;;12.69;70.22;101727.69;5055185;28;20029;-81
2023/01/06 01:41:26;;;;;;;0.52;0.52;;;;;;;12.75;70.23;101724.94;5058184;28;20079;-80
2023/01/06 01:43:56;;;;;;;0.45;0.45;;;;;;;12.71;70.08;101725.84;5057391;28;20053;-80
2023/01/06 01:46:37;;;;;;;0.10;0.10;;;;;;;12.74;69.99;101709.88;5057377;28;20025;-80
2023/01/06 01:49:13;;;;;;;0.10;0.10;;;;;;;12.75;69.95;101717.81;5053927;28;20041;-79
2023/01/06 01:51:42;;;;;;;0.32;0.32;;;;;;;12.69;70.31;101711.72;5050957;28;20021;-80
2023/01/06 01:54:13;;;;;;;0.30;0.30;;;;;;;12.75;70.22;101706.31;5056370;28;20040;-79
2023/01/06 01:56:45;;;;;;;0.20;0.20;;;;;;;12.63;69.94;101710.03;5060110;28;20057;-79
2023/01/06 01:59:17;;;;;;;0.10;0.10;;;;;;;12.70;69.80;101713.50;5067600;28;20116;-78
2023/01/06 02:01:45;;;;;;;0.20;0.20;;;;;;;12.64;69.32;101698.50;5058666;28;20513;-79
2023/01/06 02:04:12;;;;;;;0.00;0.00;;;;;;;12.73;69.97;101684.19;5057720;28;20025;-79
2023/01/06 02:06:40;;;;;;;0.40;0.40;;;;;;;12.65;69.80;101688.72;5054319;28;20025;-82
2023/01/06 02:11:46;;;;;;;0.10;0.10;;;;;;;12.64;69.62;101687.00;5091251;27;20405;-78
2023/01/06 02:14:15;;;;;;;0.10;0.10;;;;;;;12.70;69.78;101682.44;5090121;28;20084;-79
2023/01/06 02:19:59;;;;;;;0.10;0.10;;;;;;;12.76;68.91;101670.81;5070565;28;20745;-80
2023/01/06 02:25:57;;;;;;;0.25;0.25;;;;;;;12.78;68.77;101672.59;5071291;28;20131;-79
2023/01/06 02:34:47;;;;;;;0.10;0.10;;;;;;;12.71;68.70;101654.06;5097416;27;20614;-80
2023/01/06 02:46:08;;;;;;;0.10;0.10;;;;;;;12.71;68.42;101640.78;5047223;27;1196226;-81
2023/01/06 02:51:26;;;;;;;0.10;0.10;;;;;;;12.71;67.88;101625.72;5011767;28;20777;-80
2023/01/06 02:54:12;;;;;;;0.10;0.10;;;;;;;12.82;68.08;101611.34;5008919;28;20030;-81
2023/01/06 02:56:45;;;;;;;0.30;0.30;;;;;;;12.76;67.87;101609.66;5015079;28;20021;-78
2023/01/06 02:59:22;;;;;;;0.13;0.13;;;;;;;12.79;67.85;101601.66;5007064;28;20031;-78
2023/01/06 03:01:53;;;;;;;0.20;0.20;;;;;;;12.77;67.55;101600.78;5005953;28;20034;-79
2023/01/06 03:04:25;;;;;;;0.10;0.10;;;;;;;12.72;67.74;101594.66;5005630;28;20050;-80
2023/01/06 03:06:54;;;;;;;0.10;0.10;;;;;;;12.76;67.56;101585.72;5008624;28;20088;-78
2023/01/06 03:09:31;;;;;;;0.10;0.10;;;;;;;12.67;67.05;101585.91;5001684;28;20023;-79
2023/01/06 03:12:02;;;;;;;0.10;0.10;;;;;;;12.73;67.91;101593.78;4999700;28;20030;-81
2023/01/06 03:14:34;;;;;;;0.10;0.10;;;;;;;12.79;67.59;101591.00;4990703;28;20548;-81
2023/01/06 03:17:00;;;;;;;0.10;0.10;;;;;;;12.76;66.79;101596.38;5049596;28;20398;-79
2023/01/06 03:19:26;;;;;;;0.10;0.10;;;;;;;12.74;67.70;101587.56;4999986;28;20038;-80
2023/01/06 03:21:54;;;;;;;0.10;0.10;;;;;;;12.79;67.20;101591.88;5004311;28;20110;-82
2023/01/06 03:24:21;;;;;;;0.10;0.10;;;;;;;12.73;67.13;101583.13;5014387;28;20044;-82
2023/01/06 03:26:49;;;;;;;0.10;0.10;;;;;;;12.74;67.14;101580.44;5059073;28;20488;-82
2023/01/06 03:29:17;;;;;;;0.10;0.10;;;;;;;12.75;67.75;101578.69;5060453;28;20017;-82
2023/01/06 03:34:56;;;;;;;0.10;0.10;;;;;;;12.75;67.34;101579.53;5075965;28;20487;-82
2023/01/06 03:49:20;;;;;;;0.10;0.10;;;;;;;12.77;67.57;101531.66;5117724;27;20367;-80
2023/01/06 03:51:53;;;;;;;0.10;0.10;;;;;;;12.66;67.61;101534.53;5091618;28;20484;-79
2023/01/06 03:57:20;;;;;;;0.10;0.10;;;;;;;12.73;67.85;101544.13;5124498;27;20792;-79
2023/01/06 03:59:54;;;;;;;0.10;0.10;;;;;;;12.75;67.56;101537.00;5117016;27;20507;-80
2023/01/06 04:02:21;;;;;;;0.10;0.10;;;;;;;12.65;67.75;101532.75;5101546;28;20015;-79
2023/01/06 04:05:10;;;;;;;0.10;0.10;;;;;;;12.73;67.53;101528.16;5125081;27;20046;-80
2023/01/06 04:07:38;;;;;;;0.00;0.00;;;;;;;12.74;67.59;101539.69;5111992;27;20031;-79
2023/01/06 04:10:05;;;;;;;0.10;0.10;;;;;;;12.62;67.45;101540.78;5104072;28;20113;-80
2023/01/06 04:12:39;;;;;;;0.10;0.10;;;;;;;12.71;67.50;101527.34;5140606;27;20020;-78
2023/01/06 04:17:43;;;;;;;1.25;1.17;;;;;;;12.68;67.87;101521.19;5086778;28;20384;-78
2023/01/06 04:20:13;;;;;;;0.32;0.20;;;;;;;12.74;67.02;101518.41;5058056;28;20040;-78
2023/01/06 04:22:39;;;;;;;0.10;0.10;;;;;;;12.75;67.22;101510.41;5058948;28;20040;-80
2023/01/06 04:25:06;;;;;;;0.10;0.10;;;;;;;12.74;67.30;101521.94;5053927;28;20025;-79
2023/01/06 04:27:32;;;;;;;0.10;0.10;;;;;;;12.69;67.70;101530.94;5048306;28;20445;-80
2023/01/06 04:29:58;;;;;;;0.10;0.10;;;;;;;12.80;67.15;101510.34;5050691;28;20029;-80
2023/01/06 04:32:24;;;;;;;0.20;0.20;;;;;;;12.82;67.16;101499.66;5050293;28;20052;-80
2023/01/06 04:34:51;;;;;;;0.38;0.38;;;;;;;12.84;67.10;101490.75;5045425;28;20029;-81
2023/01/06 04:37:17;;;;;;;0.10;0.10;;;;;;;12.75;66.95;101497.13;5055311;28;20025;-81
2023/01/06 04:39:43;;;;;;;0.10;0.10;;;;;;;12.72;67.00;101498.94;5055488;28;20045;-80
2023/01/06 04:42:09;;;;;;;0.10;0.10;;;;;;;12.77;67.37;101491.75;5054661;28;20029;-83
2023/01/06 04:44:35;;;;;;;0.10;0.10;;;;;;;12.74;67.53;101500.66;5040272;28;20114;-82
2023/01/06 04:47:02;;;;;;;0.10;0.10;;;;;;;12.68;67.63;101502.56;5051258;28;20033;-81
2023/01/06 04:49:29;;;;;;;0.10;0.10;;;;;;;12.59;67.45;101501.81;5049532;28;20495;-82
2023/01/06 04:51:55;;;;;;;0.10;0.10;;;;;;;12.73;67.54;101476.78;5051309;28;20515;-82
2023/01/06 04:54:21;;;;;;;0.10;0.10;;;;;;;12.69;67.73;101491.91;5050797;28;20411;-82
2023/01/06 04:56:47;;;;;;;0.20;0.20;;;;;;;12.69;68.41;101494.56;5048166;28;20108;-82
2023/01/06 04:59:13;;;;;;;0.10;0.10;;;;;;;12.74;68.29;101475.88;5050536;28;20038;-81
2023/01/06 05:01:40;;;;;;;0.10;0.10;;;;;;;12.69;68.34;101477.75;5048268;28;20573;-81
2023/01/06 05:04:06;;;;;;;0.10;0.10;;;;;;;12.65;68.45;101465.41;5049902;28;20032;-82
2023/01/06 05:06:33;;;;;;;0.10;0.10;;;;;;;12.68;68.20;101460.03;5050638;28;20051;-82
2023/01/06 05:08:59;;;;;;;0.10;0.10;;;;;;;12.63;68.77;101468.09;5053851;28;20025;-83
2023/01/06 05:11:26;;;;;;;0.30;0.30;;;;;;;12.66;69.18;101464.50;5058689;28;20036;-82
2023/01/06 05:13:53;;;;;;;0.10;0.10;;;;;;;12.56;70.05;101450.50;5053406;28;20503;-82
2023/01/06 05:18:56;;;;;;;0.10;0.10;;;;;;;12.44;70.30;101462.25;5068824;28;20387;-80
2023/01/06 05:21:24;;;;;;;0.10;0.10;;;;;;;12.38;70.51;101449.06;5055196;28;20073;-80
2023/01/06 05:23:50;;;;;;;0.10;0.10;;;;;;;12.41;70.49;101459.63;5069917;28;20055;-80
2023/01/06 05:26:19;;;;;;;0.10;0.10;;;;;;;12.36;70.70;101474.78;5054841;28;20032;-80
2023/01/06 05:28:46;;;;;;;0.10;0.10;;;;;;;12.34;71.40;101477.47;5057624;28;20029;-79
2023/01/06 05:31:12;;;;;;;0.10;0.10;;;;;;;12.24;71.85;101487.38;5070201;28;20033;-79
2023/01/06 05:33:38;;;;;;;0.65;0.65;;;;;;;12.14;72.66;101483.13;5062144;28;20044;-80
2023/01/06 05:36:08;;;;;;;0.10;0.10;;;;;;;12.14;72.24;101480.47;5061236;28;20053;-80
2023/01/06 05:38:34;;;;;;;0.10;0.10;;;;;;;12.08;73.63;101480.56;5067226;28;20021;-80
2023/01/06 05:41:00;;;;;;;0.10;0.10;;;;;;;12.08;73.44;101483.22;5062066;28;20404;-80
2023/01/06 05:43:27;;;;;;;0.10;0.10;;;;;;;12.09;73.32;101472.56;5066063;28;20038;-80
2023/01/06 05:45:54;;;;;;;0.10;0.10;;;;;;;12.10;73.07;101468.13;5053988;28;20041;-80
2023/01/06 05:48:23;;;;;;;0.10;0.10;;;;;;;12.08;73.06;101470.81;5069346;28;20033;-80
2023/01/06 05:50:49;;;;;;;0.10;0.10;;;;;;;12.05;73.32;101476.19;5051236;28;20099;-81
2023/01/06 05:53:15;;;;;;;0.10;0.10;;;;;;;12.01;73.92;101473.59;5065528;28;20064;-81
2023/01/06 05:55:41;;;;;;;0.10;0.10;;;;;;;12.01;73.48;101476.25;5058512;28;20421;-81
2023/01/06 05:58:07;;;;;;;0.10;0.10;;;;;;;11.95;73.85;101462.13;5069244;28;20036;-81
2023/01/06 06:00:34;;;;;;;0.10;0.10;;;;;;;11.92;74.42;101474.56;5051158;28;20037;-81
2023/01/06 06:03:00;;;;;;;0.10;0.10;;;;;;;11.94;73.98;101472.78;5053395;28;20031;-81
2023/01/06 06:05:26;;;;;;;0.20;0.20;;;;;;;11.97;74.09;101473.66;5057938;28;20037;-81
2023/01/06 06:07:53;;;;;;;0.10;0.10;;;;;;;11.98;74.35;101474.53;5052385;28;20037;-79
2023/01/06 06:10:19;;;;;;;0.10;0.10;;;;;;;11.97;73.75;101478.97;5069863;28;20391;-80
2023/01/06 06:12:45;;;;;;;0.10;0.10;;;;;;;11.95;74.22;101480.72;5062694;28;20033;-80
2023/01/06 06:15:12;;;;;;;0.10;0.10;;;;;;;11.96;74.59;101471.00;5058697;28;20060;-81
2023/01/06 06:17:38;;;;;;;0.10;0.10;;;;;;;11.95;74.40;101472.75;5055843;28;20085;-80
2023/01/06 06:20:04;;;;;;;0.30;0.30;;;;;;;11.90;75.19;101493.19;5052408;28;20033;-81
2023/01/06 06:22:30;;;;;;;0.22;0.22;;;;;;;11.93;74.79;101479.84;5051478;28;20112;-81
2023/01/06 06:24:57;;;;;;;0.20;0.20;;;;;;;11.92;75.23;101475.44;5053630;28;20044;-81
2023/01/06 06:27:23;;;;;;;0.10;0.10;;;;;;;11.94;75.47;101472.78;5062569;28;20488;-81
2023/01/06 06:29:49;;;;;;;1.17;0.43;;;;;;;11.88;76.10;101479.06;5052227;28;20167;-81
2023/01/06 06:32:15;;;;;;;0.10;0.10;;;;;;;11.91;75.49;101475.47;5034005;28;20087;-81
2023/01/06 06:34:41;;;;;;;0.10;0.10;;;;;;;11.88;75.82;101476.41;5041483;28;20026;-81
2023/01/06 06:37:07;;;;;;;0.20;0.20;;;;;;;11.88;75.68;101488.81;5041675;28;20040;-81
2023/01/06 06:39:33;;;;;;;0.40;0.40;;;;;;;11.93;75.94;101509.06;5053047;28;20029;-81
2023/01/06 06:41:59;;;;;;;0.10;0.10;;;;;;;12.00;75.98;101498.38;5053941;28;20041;-80
2023/01/06 06:44:25;;;;;;;0.10;0.10;;;;;;;11.89;76.22;101539.25;5052525;28;20080;-81
2023/01/06 06:46:51;;;;;;;0.10;0.10;;;;;;;11.91;76.43;101542.75;5048297;28;20025;-79
2023/01/06 06:49:17;;;;;;;0.10;0.10;;;;;;;11.84;76.55;101551.69;5055162;28;20076;-79
2023/01/06 06:51:46;;;;;;;0.10;0.10;;;;;;;11.89;77.08;101555.16;5051979;28;20095;-80
2023/01/06 06:54:12;;;;;;;0.10;0.10;;;;;;;11.94;76.68;101590.50;5051399;28;20041;-79
2023/01/06 06:56:38;;;;;;;0.20;0.20;;;;;;;11.93;76.73;101556.88;5063345;28;20016;-80
2023/01/06 06:59:05;;;;;;;0.10;0.10;;;;;;;11.94;76.44;101563.94;5061755;28;20537;-80
2023/01/06 07:01:31;;;;;;;0.30;0.30;;;;;;;11.97;76.97;101555.09;5056590;28;20039;-79
2023/01/06 07:03:57;;;;;;;0.52;0.45;;;;;;;11.98;76.42;101551.53;5059387;28;20097;-79
2023/01/06 07:06:26;;;;;;;0.10;0.10;;;;;;;12.02;76.20;101552.38;5055259;28;20037;-79
2023/01/06 07:08:52;;;;;;;0.10;0.10;;;;;;;11.95;76.00;101548.88;5047684;28;20044;-80
2023/01/06 07:11:19;;;;;;;0.10;0.10;;;;;;;11.94;75.87;101558.63;5056948;28;20398;-79
2023/01/06 07:13:46;;;;;;;0.10;0.10;;;;;;;11.97;76.34;101573.69;5055373;28;20401;-79
2023/01/06 07:16:12;;;;;;;0.10;0.10;;;;;;;11.97;75.96;101579.88;5065599;28;20166;-79
2023/01/06 07:18:38;;;;;;;0.10;0.10;;;;;;;11.96;76.35;101578.13;5042592;28;20100;-79
2023/01/06 07:21:05;;;;;;;0.10;0.10;;;;;;;11.96;75.74;101588.75;5044194;28;20033;-80
2023/01/06 07:23:32;;;;;;;0.30;0.30;;;;;;;12.03;75.98;101584.22;5039807;28;20060;-80
2023/01/06 07:26:00;;;;;;;0.17;0.17;;;;;;;11.92;76.35;101607.34;5040073;28;20049;-79
2023/01/06 07:28:27;;;;;;;0.10;0.10;;;;;;;12.03;75.54;101601.94;5038849;28;20033;-80
2023/01/06 07:30:53;;;;;;;0.15;0.15;;;;;;;12.00;75.89;101615.25;5028375;28;20108;-80
2023/01/06 07:33:20;;;;;;;0.15;0.15;;;;;;;12.05;74.75;101616.06;5035161;28;20079;-80
2023/01/06 07:35:50;;;;;;;0.10;0.10;;;;;;;12.10;75.30;101622.19;5040110;28;20061;-80
2023/01/06 07:38:16;;;;;;;1.38;1.35;;;;;;;12.14;74.63;101623.91;5035821;28;20057;-80
2023/01/06 07:40:42;;;;;;;0.28;0.28;;;;;;;12.13;74.59;101614.19;5035490;28;20029;-79
2023/01/06 07:43:10;;;;;;;0.10;0.10;;;;;;;12.18;73.94;101620.31;5041295;28;20033;-80
2023/01/06 07:45:36;;;;;;;0.20;0.20;;;;;;;12.16;73.99;101618.56;5038078;28;20029;-79
2023/01/06 07:48:03;;;;;;;0.10;0.10;;;;;;;12.16;74.52;101621.22;5039396;28;20509;-79
2023/01/06 07:50:29;;;;;;;0.10;0.10;;;;;;;12.11;74.12;101627.50;5040047;28;20444;-79
2023/01/06 07:52:58;;;;;;;0.10;0.10;;;;;;;12.17;74.20;101633.63;5036038;28;20034;-80
2023/01/06 07:55:24;;;;;;;0.45;0.45;;;;;;;12.13;74.66;101649.59;5036433;28;20033;-79
2023/01/06 07:57:51;;;;;;;0.10;0.10;;;;;;;12.15;73.52;101638.97;5036049;28;20500;-79
2023/01/06 08:00:17;;;;;;;0.10;0.10;;;;;;;12.11;73.67;101645.19;5034688;28;20111;-80
2023/01/06 08:02:43;;;;;;;0.10;0.10;;;;;;;12.07;74.19;101641.69;5038142;28;20045;-79
2023/01/06 08:05:10;;;;;;;0.10;0.10;;;;;;;12.05;73.69;101643.50;5040695;28;20052;-80
2023/01/06 08:07:36;;;;;;;0.10;0.10;;;;;;;11.97;73.49;101648.94;5040966;28;20489;-79
2023/01/06 08:10:02;;;;;;;0.10;0.10;;;;;;;11.96;74.12;101647.16;5039806;28;20076;-79
2023/01/06 08:12:28;;;;;;;0.13;0.13;;;;;;;11.93;73.72;101651.59;5039295;28;20033;-80
2023/01/06 08:14:54;;;;;;;0.13;0.13;;;;;;;11.92;73.80;101671.09;5038510;28;20040;-80
2023/01/06 08:17:20;;;;;;;0.10;0.10;;;;;;;11.84;73.61;101679.16;5035005;28;20025;-79
2023/01/06 08:19:47;;;;;;;0.57;0.57;;;;;;;11.78;73.64;101676.56;5035117;28;20037;-80
2023/01/06 08:22:13;;;;;;;0.10;0.10;;;;;;;11.75;73.60;101681.91;5035347;28;20026;-79
2023/01/06 08:24:39;;;;;;;0.10;0.10;;;;;;;11.76;73.47;101681.91;5035236;28;20025;-79
2023/01/06 08:27:05;;;;;;;0.10;0.10;;;;;;;11.70;73.40;101691.69;5035172;28;20022;-79
2023/01/06 08:29:31;;;;;;;1.10;1.10;;;;;;;11.65;73.37;101697.94;5034544;28;20053;-79
2023/01/06 08:31:57;;;;;;;0.13;0.13;;;;;;;11.55;73.08;101693.63;5037093;28;20040;-80
2023/01/06 08:34:23;;;;;;;0.10;0.10;;;;;;;11.58;73.57;101692.72;5035926;28;20076;-79
2023/01/06 08:36:51;;;;;;;0.10;0.10;;;;;;;11.56;73.65;101706.00;5036466;28;20030;-79
2023/01/06 08:39:17;;;;;;;0.10;0.10;;;;;;;11.51;73.19;101701.63;5034602;28;20059;-79
2023/01/06 08:41:43;;;;;;;0.10;0.10;;;;;;;11.48;72.97;101700.75;5035718;28;20114;-78
2023/01/06 08:44:09;;;;;;;0.10;0.10;;;;;;;11.36;73.14;101707.97;5035578;28;20025;-79
2023/01/06 08:46:36;;;;;;;18.10;1.65;;;;;;;11.44;73.25;101714.06;5035370;28;20034;-78
2023/01/06 08:49:02;;;;;;;0.20;0.20;;;;;;;11.36;73.37;101727.41;5033920;28;20064;-79
2023/01/06 08:51:28;;;;;;;0.10;0.10;;;;;;;11.39;72.79;101718.53;5035607;28;20034;-79
2023/01/06 08:53:55;;;;;;;0.13;0.13;;;;;;;11.41;72.74;101717.63;5035552;28;20134;-79
2023/01/06 08:56:25;;;;;;;0.10;0.10;;;;;;;11.41;72.70;101720.28;5034499;28;20044;-79
2023/01/06 08:58:56;;;;;;;0.10;0.10;;;;;;;11.35;72.16;101727.44;5033639;28;20041;-79
2023/01/06 09:01:27;;;;;;;0.10;0.10;;;;;;;11.39;72.19;101734.47;5033709;28;20574;-79
2023/01/06 09:03:54;;;;;;;0.10;0.10;;;;;;;11.36;72.34;101738.03;5033576;28;20025;-79
2023/01/06 09:06:22;;;;;;;0.30;0.30;;;;;;;11.36;72.60;101737.16;5034033;28;20029;-79
2023/01/06 09:08:48;;;;;;;0.10;0.10;;;;;;;11.36;71.75;101734.50;5035220;28;20437;-79
2023/01/06 09:11:16;;;;;;;0.10;0.10;;;;;;;11.36;71.62;101746.00;5035627;28;20030;-79
2023/01/06 09:13:43;;;;;;;0.10;0.10;;;;;;;11.29;71.32;101750.47;5034659;28;20036;-79
2023/01/06 09:16:10;;;;;;;0.15;0.15;;;;;;;11.36;72.06;101763.69;5042032;28;20093;-79
2023/01/06 09:18:37;;;;;;;0.13;0.13;;;;;;;11.32;71.71;101766.34;5035626;28;20373;-79
2023/01/06 09:21:04;;;;;;;0.10;0.10;;;;;;;11.30;71.90;101762.84;5036821;28;20050;-78
2023/01/06 09:23:31;;;;;;;0.10;0.10;;;;;;;11.32;71.42;101779.63;5043351;28;20056;-78
2023/01/06 09:25:57;;;;;;;0.10;0.10;;;;;;;11.35;71.18;101783.16;5039237;28;20399;-79
2023/01/06 09:28:24;;;;;;;0.10;0.10;;;;;;;11.37;71.30;101779.59;5035446;28;20051;-79
2023/01/06 09:30:50;;;;;;;2.15;2.05;;;;;;;11.42;71.37;101782.22;5036298;28;20108;-79
2023/01/06 09:33:17;;;;;;;0.10;0.10;;;;;;;11.39;70.81;101790.19;5048530;28;20032;-78
2023/01/06 09:35:44;;;;;;;0.17;0.17;;;;;;;11.39;70.09;101798.16;5044509;28;20116;-79
2023/01/06 09:38:11;;;;;;;0.90;0.90;;;;;;;11.41;69.92;101785.75;5040031;28;20052;-79
2023/01/06 09:43:33;;;;;;;0.17;0.17;;;;;;;11.49;69.38;101783.94;5113045;27;20414;-79
2023/01/06 09:46:02;;;;;;;0.20;0.20;;;;;;;11.44;69.68;101788.38;5088574;28;20085;-79
2023/01/06 09:48:36;;;;;;;0.10;0.10;;;;;;;11.45;69.06;101790.13;5092522;28;20025;-79
2023/01/06 09:51:05;;;;;;;0.10;0.10;;;;;;;11.45;68.55;101788.38;5091469;28;20059;-79
2023/01/06 09:53:38;;;;;;;0.10;0.10;;;;;;;11.50;69.17;101775.06;5086600;28;20522;-79
2023/01/06 09:56:07;;;;;;;;;;;;;;;11.57;67.79;101786.50;5077145;28;20103;-80
2023/01/06 09:58:41;;;;;;;0.10;0.10;;;;;;;11.55;68.61;101788.28;5085628;28;20461;-81
2023/01/06 10:01:11;;;;;;;0.10;0.10;;;;;;;11.50;67.67;101798.94;5083945;28;20028;-80
2023/01/06 10:03:38;;;;;;;0.30;0.30;;;;;;;11.56;68.69;101798.00;5092458;28;20032;-79
2023/01/06 10:06:44;;;;;;;0.35;0.35;;;;;;;11.63;67.71;101795.28;5084993;28;20043;-80
2023/01/06 10:09:27;;;;;;;0.10;0.10;;;;;;;11.62;67.23;101796.19;5079446;28;20059;-80
2023/01/06 10:12:21;;;;;;;0.10;0.10;;;;;;;11.71;67.06;101802.31;5084058;28;20027;-80
2023/01/06 10:15:13;;;;;;;0.45;0.43;;;;;;;11.72;67.85;101804.06;5083332;28;20032;-83
2023/01/06 10:18:09;;;;;;;0.15;0.15;;;;;;;11.80;66.62;101808.41;5081497;28;20056;-82
2023/01/06 10:23:54;;;;;;;0.20;0.20;;;;;;;11.92;66.61;101806.53;5104493;27;20815;-79
2023/01/06 10:26:42;;;;;;;1.02;0.60;;;;;;;12.02;66.50;101807.34;5090905;28;20036;-80
2023/01/06 10:29:16;;;;;;;0.10;0.10;;;;;;;12.04;66.52;101808.22;5089174;28;20060;-80
2023/01/06 10:31:44;;;;;;;0.10;0.10;;;;;;;12.02;66.03;101816.19;5083520;28;20029;-81
2023/01/06 10:34:21;;;;;;;0.15;0.15;;;;;;;12.12;66.80;101806.34;5084182;28;20039;-81
2023/01/06 10:37:11;;;;;;;0.10;0.10;;;;;;;12.15;66.09;101801.00;5087301;28;20028;-81
2023/01/06 10:39:41;;;;;;;0.10;0.10;;;;;;;12.11;65.51;101805.47;5101888;28;20027;-81
2023/01/06 10:44:47;;;;;;;0.10;0.10;;;;;;;12.21;66.63;101806.25;5110498;27;20377;-81
2023/01/06 10:47:24;;;;;;;0.10;0.10;;;;;;;12.28;65.46;101807.94;5100866;28;20074;-80
2023/01/06 10:49:50;;;;;;;0.20;0.20;;;;;;;12.36;65.59;101804.31;5100787;28;20028;-80
2023/01/06 10:52:17;;;;;;;0.10;0.10;;;;;;;12.44;65.93;101808.63;5091941;28;20104;-81
2023/01/06 10:54:44;;;;;;;0.10;0.10;;;;;;;12.56;66.35;101801.38;5106931;28;20032;-81
2023/01/06 10:57:19;;;;;;;0.10;0.10;;;;;;;12.65;65.97;101805.72;5106350;28;20175;-80
2023/01/06 11:00:07;;;;;;;0.10;0.10;;;;;;;12.70;64.90;101811.88;5103085;28;20036;-80
2023/01/06 11:02:34;;;;;;;0.10;0.10;;;;;;;12.69;65.19;101820.75;5105261;28;20028;-79
2023/01/06 11:05:01;;;;;;;0.10;0.10;;;;;;;12.80;65.12;101805.53;5105558;28;20099;-79
2023/01/06 11:07:28;;;;;;;1.00;0.95;;;;;;;12.90;65.27;101812.47;5094972;28;20036;-80
2023/01/06 11:09:56;;;;;;;0.10;0.10;;;;;;;12.93;63.66;101822.16;5097894;28;20035;-80
2023/01/06 11:12:26;;;;;;;0.10;0.10;;;;;;;12.99;63.65;101816.75;5103092;28;20038;-80
2023/01/06 11:14:59;;;;;;;0.10;0.10;;;;;;;13.01;63.73;101819.41;5100433;28;20387;-80
2023/01/06 11:17:27;;;;;;;0.10;0.10;;;;;;;13.08;64.06;101818.41;5092181;28;20122;-79
2023/01/06 11:22:47;;;;;;;0.10;0.10;;;;;;;13.10;63.19;101820.16;5112744;27;20890;-80
2023/01/06 11:28:18;;;;;;;0.13;0.13;;;;;;;13.09;62.52;101812.19;5119318;27;20372;-80
2023/01/06 11:33:30;;;;;;;0.10;0.10;;;;;;;12.91;62.58;101792.94;5072414;28;20395;-80
2023/01/06 11:35:57;;;;;;;0.10;0.10;;;;;;;12.91;62.75;101782.31;5055440;28;20455;-80
2023/01/06 11:38:24;;;;;;;0.10;0.10;;;;;;;12.88;63.37;101787.66;5051034;28;20025;-80
2023/01/06 11:40:52;;;;;;;0.25;0.25;;;;;;;12.88;61.84;101787.66;5051335;28;20033;-80
2023/01/06 11:43:24;;;;;;;0.40;0.40;;;;;;;12.91;62.43;101784.06;5049847;28;20035;-81
2023/01/06 11:45:56;;;;;;;0.10;0.10;;;;;;;13.00;62.47;101781.28;5048842;28;20130;-80
2023/01/06 11:48:29;;;;;;;0.17;0.17;;;;;;;13.05;61.41;101781.22;5047806;28;20057;-80
2023/01/06 11:50:59;;;;;;;0.10;0.10;;;;;;;13.15;62.37;101780.16;5048814;28;20083;-81
2023/01/06 11:53:28;;;;;;;0.10;0.10;;;;;;;13.10;60.57;101774.91;5048841;28;20076;-80
2023/01/06 11:56:02;;;;;;;0.10;0.10;;;;;;;13.12;59.86;101769.56;5048969;28;20029;-78
2023/01/06 12:01:39;;;;;;;0.10;0.10;;;;;;;13.19;59.63;101765.03;5122447;27;1170114;-80
2023/01/06 12:04:23;;;;;;;0.10;0.10;;;;;;;13.12;59.65;101758.91;5120664;27;20322;-81
2023/01/06 12:06:55;;;;;;;0.10;0.10;;;;;;;13.12;59.28;101761.56;5113628;28;20023;-80
2023/01/06 12:09:26;;;;;;;0.10;0.10;;;;;;;13.10;59.38;101755.41;5119648;28;20495;-80
2023/01/06 12:11:55;;;;;;;0.13;0.13;;;;;;;13.19;59.05;101752.59;5119931;28;20036;-80
2023/01/06 12:17:23;;;;;;;0.10;0.10;;;;;;;13.27;58.02;101764.00;5076124;28;20389;-80
2023/01/06 12:19:55;;;;;;;0.63;0.40;;;;;;;13.40;58.03;101766.50;5071021;28;20040;-81
2023/01/06 12:24:58;;;;;;;0.10;0.10;;;;;;;13.50;57.50;101762.75;5105304;27;1165747;-81
2023/01/06 12:27:33;;;;;;;0.20;0.20;;;;;;;13.65;58.03;101763.41;5139051;27;20284;-81
2023/01/06 12:30:03;;;;;;;0.10;0.10;;;;;;;13.66;58.01;101765.19;5141879;27;20033;-80
2023/01/06 12:32:36;;;;;;;0.38;0.38;;;;;;;13.61;56.19;101775.91;5147337;27;20023;-80
2023/01/06 12:35:04;;;;;;;0.10;0.10;;;;;;;13.71;56.95;101768.63;5136249;27;20019;-81
2023/01/06 12:37:51;;;;;;;0.10;0.10;;;;;;;13.82;56.79;101769.31;5136095;28;20069;-81
2023/01/06 12:40:42;;;;;;;0.30;0.30;;;;;;;13.94;55.52;101775.31;5137610;28;20032;-81
2023/01/06 12:43:17;;;;;;;0.10;0.10;;;;;;;14.02;55.77;101763.59;5140430;28;20034;-81
2023/01/06 12:45:56;;;;;;;0.10;0.10;;;;;;;14.10;55.62;101766.09;5137919;27;20057;-83
2023/01/06 12:48:38;;;;;;;0.10;0.10;;;;;;;14.13;55.54;101755.38;5137153;28;20015;-80